Time;durP1;ratioP1;P1;durP2;ratioP2;P2;SDS_P1;SDS_P2;PMS_P1;PMS_P2;Temp;Humidity;BMP_temperature;BMP_pressure;BME280_temperature;BME280_humidity;BME280_pressure;Samples;Min_cycle;Max_cycle;Signal;HPM_P1;HPM_P2
2022/12/26 00:02:34;;;;;;;2.35;1.60;;;;;;;19.25;50.49;96706.66;10319100;28;20057;-50
2022/12/26 00:07:54;;;;;;;1.77;1.58;;;;;;;19.23;50.31;96708.91;10334728;28;20112;-49
2022/12/26 00:13:13;;;;;;;2.67;1.60;;;;;;;19.23;50.36;96711.59;10309515;28;20063;-50
2022/12/26 00:18:33;;;;;;;1.85;1.55;;;;;;;19.23;50.42;96714.31;10350651;28;20097;-50
2022/12/26 00:23:56;;;;;;;2.75;1.65;;;;;;;19.21;50.33;96735.44;10350789;28;20058;-51
2022/12/26 00:29:15;;;;;;;2.53;1.65;;;;;;;19.19;50.46;96743.88;10337062;28;20431;-50
2022/12/26 00:34:34;;;;;;;2.13;1.58;;;;;;;19.19;50.48;96745.78;10330967;28;20065;-50
2022/12/26 00:39:55;;;;;;;1.90;1.60;;;;;;;19.17;50.45;96749.59;10331025;28;20106;-50
2022/12/26 00:45:14;;;;;;;1.90;1.60;;;;;;;19.16;50.45;96766.91;10336645;28;20081;-50
2022/12/26 00:50:33;;;;;;;2.17;1.55;;;;;;;19.15;50.44;96762.63;10335091;28;20059;-52
2022/12/26 00:55:53;;;;;;;3.03;1.35;;;;;;;19.15;50.52;96759.94;10335544;28;20065;-50
2022/12/26 01:01:19;;;;;;;1.90;1.50;;;;;;;19.14;50.56;96742.13;10335607;28;20060;-49
2022/12/26 01:06:39;;;;;;;1.88;1.30;;;;;;;19.12;50.54;96735.47;10335703;28;20066;-50
2022/12/26 01:11:58;;;;;;;2.28;1.50;;;;;;;19.12;50.54;96730.09;10327891;28;20066;-49
2022/12/26 01:17:17;;;;;;;1.90;1.50;;;;;;;19.10;50.62;96749.31;10324324;28;20067;-50
2022/12/26 01:22:37;;;;;;;3.38;1.63;;;;;;;19.10;50.69;96749.31;10320718;28;20058;-53
2022/12/26 01:27:57;;;;;;;1.95;1.30;;;;;;;19.09;50.65;96728.84;10334589;28;20062;-50
2022/12/26 01:33:16;;;;;;;2.08;1.35;;;;;;;19.07;50.65;96717.56;10324273;28;20058;-51
2022/12/26 01:38:36;;;;;;;1.88;1.63;;;;;;;19.07;50.58;96731.06;10319814;28;20054;-50
2022/12/26 01:44:48;;;;;;;1.67;1.33;;;;;;;19.06;50.67;96726.75;10322559;28;20065;-51
2022/12/26 01:50:23;;;;;;;1.75;1.30;;;;;;;19.04;50.78;96734.41;10310697;28;20082;-50
2022/12/26 01:55:46;;;;;;;2.38;1.42;;;;;;;19.05;50.61;96743.28;10305542;28;20063;-50
2022/12/26 02:01:07;;;;;;;1.90;1.50;;;;;;;19.03;50.67;96740.91;10319476;28;20498;-49
2022/12/26 02:06:26;;;;;;;1.60;1.30;;;;;;;19.01;50.74;96737.72;10329443;28;20054;-49
2022/12/26 02:11:55;;;;;;;2.00;1.20;;;;;;;19.02;50.74;96735.84;10332304;28;20058;-49
2022/12/26 02:17:15;;;;;;;2.30;1.30;;;;;;;19.01;50.75;96737.72;10326340;28;20066;-50
2022/12/26 02:23:24;;;;;;;1.52;1.27;;;;;;;18.99;50.81;96728.38;10332203;28;20061;-50
2022/12/26 02:29:11;;;;;;;1.80;1.50;;;;;;;18.98;50.74;96722.19;10258729;28;20502;-51
2022/12/26 02:34:56;;;;;;;1.35;1.25;;;;;;;18.96;50.76;96706.31;10320193;28;20054;-50
2022/12/26 02:40:45;;;;;;;1.55;1.30;;;;;;;18.95;50.77;96703.91;10300106;28;20077;-48
2022/12/26 03:14:41;;;;;;;1.42;1.20;;;;;;;18.90;50.84;96709.50;10319167;28;20062;-51
2022/12/26 03:20:30;;;;;;;1.30;1.17;;;;;;;18.89;50.87;96713.31;10316450;28;20146;-49
2022/12/26 03:31:42;;;;;;;1.20;1.10;;;;;;;18.86;50.94;96703.19;10328345;28;20054;-49
2022/12/26 03:37:20;;;;;;;1.30;1.10;;;;;;;18.85;50.93;96701.56;10292586;28;20063;-51
2022/12/26 04:46:38;;;;;;;1.30;1.20;;;;;;;18.72;51.03;96708.72;10309702;28;20059;-51
2022/12/26 04:51:59;;;;;;;0.90;0.90;;;;;;;18.70;51.06;96702.84;10307904;28;20073;-51
2022/12/26 04:57:18;;;;;;;1.55;1.08;;;;;;;18.70;51.05;96714.44;10324720;28;20446;-49
2022/12/26 05:14:02;;;;;;;1.13;1.02;;;;;;;18.67;51.16;96739.34;10309559;28;20065;-50
2022/12/26 05:30:38;;;;;;;1.20;1.10;;;;;;;18.66;51.23;96748.56;10334186;28;20670;-50
2022/12/26 05:35:57;;;;;;;1.10;0.90;;;;;;;18.65;51.14;96746.97;10299324;28;20297;-51
2022/12/26 05:41:18;;;;;;;1.10;0.90;;;;;;;18.66;51.25;96737.78;10331215;28;20453;-51
2022/12/26 05:46:38;;;;;;;1.05;0.98;;;;;;;18.65;51.28;96744.28;10323381;28;20106;-51
2022/12/26 05:51:57;;;;;;;1.10;1.00;;;;;;;18.67;51.19;96735.88;10318324;28;20593;-51
2022/12/26 05:57:17;;;;;;;1.02;0.90;;;;;;;18.68;51.25;96732.03;10294665;28;20055;-50
2022/12/26 06:02:36;;;;;;;1.00;0.90;;;;;;;18.68;51.30;96732.84;10295718;28;20406;-51
2022/12/26 06:07:56;;;;;;;1.10;0.90;;;;;;;18.70;51.12;96735.22;10293793;28;20126;-50
2022/12/26 06:13:15;;;;;;;1.10;0.90;;;;;;;18.70;51.16;96741.44;10314870;28;20414;-50
2022/12/26 06:18:35;;;;;;;0.85;0.80;;;;;;;18.71;51.19;96748.41;10331923;28;20058;-51
2022/12/26 06:23:54;;;;;;;0.85;0.80;;;;;;;18.72;51.23;96750.00;10329794;28;20061;-51
2022/12/26 06:29:14;;;;;;;1.00;0.90;;;;;;;18.74;51.09;96745.06;10331969;28;20050;-50
2022/12/26 06:34:33;;;;;;;1.08;0.93;;;;;;;18.75;51.20;96749.34;10330830;28;20054;-50
2022/12/26 06:39:52;;;;;;;0.70;0.70;;;;;;;18.76;51.02;96739.34;10331771;28;20105;-51
2022/12/26 06:45:12;;;;;;;0.70;0.70;;;;;;;18.77;51.12;96749.03;10330462;28;20498;-50
2022/12/26 06:50:31;;;;;;;0.80;0.80;;;;;;;18.77;51.07;96741.72;10314603;28;20065;-51
2022/12/26 06:55:50;;;;;;;1.35;1.00;;;;;;;18.80;51.10;96747.63;10331372;28;20466;-50
2022/12/26 07:01:15;;;;;;;1.27;1.13;;;;;;;18.82;51.11;96753.47;10304182;28;20114;-49
2022/12/26 07:06:36;;;;;;;1.60;0.93;;;;;;;18.84;51.28;96745.88;10303538;28;20101;-50
2022/12/26 07:11:56;;;;;;;1.10;1.00;;;;;;;18.86;51.33;96755.25;10331548;28;20054;-48
2022/12/26 07:17:15;;;;;;;1.10;1.00;;;;;;;18.88;51.49;96757.63;10333182;28;20050;-51
2022/12/26 07:22:34;;;;;;;0.77;0.77;;;;;;;18.89;51.70;96764.59;10327881;28;20502;-49
2022/12/26 07:27:54;;;;;;;1.13;0.80;;;;;;;18.90;51.57;96750.78;10330902;28;20054;-50
2022/12/26 07:33:13;;;;;;;0.85;0.85;;;;;;;18.92;51.86;96736.97;10319801;28;20388;-50
2022/12/26 07:38:33;;;;;;;0.75;0.75;;;;;;;18.94;51.83;96742.84;10320915;28;20058;-51
2022/12/26 07:43:53;;;;;;;1.02;0.88;;;;;;;18.95;51.97;96752.50;10320050;28;20058;-51
2022/12/26 07:49:13;;;;;;;0.70;0.70;;;;;;;18.96;52.00;96729.81;10327421;28;20058;-50
2022/12/26 07:54:32;;;;;;;2.00;0.73;;;;;;;18.99;51.88;96722.97;10305553;28;20059;-50
2022/12/26 07:59:52;;;;;;;0.65;0.65;;;;;;;19.01;51.98;96728.84;10274404;28;20050;-51
2022/12/26 08:05:11;;;;;;;0.80;0.80;;;;;;;19.02;52.14;96733.91;10314144;28;20121;-50
2022/12/26 08:10:31;;;;;;;0.80;0.80;;;;;;;19.04;52.16;96741.72;10337309;28;20062;-51
2022/12/26 08:15:50;;;;;;;0.95;0.85;;;;;;;19.04;52.16;96734.41;10292636;28;20059;-49
2022/12/26 08:21:10;;;;;;;0.98;0.88;;;;;;;19.06;52.21;96731.38;10294933;28;20058;-49
2022/12/26 08:26:30;;;;;;;0.88;0.85;;;;;;;19.08;52.21;96737.25;10297401;28;20138;-50
2022/12/26 08:31:49;;;;;;;0.85;0.80;;;;;;;19.08;52.25;96740.72;10297325;28;20651;-49
2022/12/26 08:37:09;;;;;;;1.00;0.80;;;;;;;19.09;52.30;96736.13;10296756;28;20070;-50
2022/12/26 08:42:29;;;;;;;0.95;0.90;;;;;;;19.12;52.34;96738.19;10309381;28;20059;-50
2022/12/26 08:47:48;;;;;;;0.80;0.80;;;;;;;19.12;52.44;96733.56;10288978;28;20109;-50
2022/12/26 08:53:08;;;;;;;2.42;0.80;;;;;;;19.15;52.61;96756.44;10269474;28;20110;-50
2022/12/26 08:58:27;;;;;;;1.23;0.80;;;;;;;19.17;52.56;96760.41;10295585;28;20066;-51
2022/12/26 09:03:52;;;;;;;1.75;0.90;;;;;;;19.19;52.69;96767.38;10276679;28;20054;-50
2022/12/26 09:09:12;;;;;;;0.65;0.60;;;;;;;19.20;52.73;96764.38;10286564;28;20066;-53
2022/12/26 09:14:32;;;;;;;3.08;0.77;;;;;;;19.21;52.78;96754.34;10295589;28;20059;-52
2022/12/26 09:19:51;;;;;;;1.50;0.80;;;;;;;19.23;52.66;96762.91;10326478;28;20054;-50
2022/12/26 09:25:10;;;;;;;1.58;0.95;;;;;;;19.24;52.79;96770.69;10335445;28;20108;-51
2022/12/26 09:30:29;;;;;;;0.95;0.80;;;;;;;19.26;52.68;96778.50;10334303;28;20193;-51
2022/12/26 09:35:49;;;;;;;1.08;0.98;;;;;;;19.28;52.71;96784.38;10334419;28;20108;-49
2022/12/26 09:41:17;;;;;;;0.70;0.70;;;;;;;19.29;52.82;96783.25;10333308;28;20077;-50
2022/12/26 09:46:56;;;;;;;3.08;0.88;;;;;;;19.31;52.93;96759.41;10302453;28;20447;-49
2022/12/26 09:52:16;;;;;;;;;;;;;;;19.32;52.74;96761.00;10332632;28;20066;-52
2022/12/26 09:57:42;;;;;;;0.75;0.70;;;;;;;19.35;52.63;96768.47;10319499;28;19944;-51
2022/12/26 10:03:02;;;;;;;2.30;0.82;;;;;;;19.36;50.71;96767.31;10330491;28;20053;-53
2022/12/26 10:08:39;;;;;;;2.05;1.10;;;;;;;19.36;51.30;96757.31;10329806;28;20069;-52
2022/12/26 10:14:04;;;;;;;3.50;1.52;;;;;;;19.37;49.72;96752.72;10316673;28;20062;-53
2022/12/26 10:19:45;;;;;;;7.38;2.72;;;;;;;19.34;47.56;96748.72;10328188;28;20097;-54
2022/12/26 10:25:15;;;;;;;9.95;2.80;;;;;;;19.35;49.49;96749.56;10343001;28;20042;-52
2022/12/26 10:30:40;;;;;;;7.43;2.17;;;;;;;19.36;49.30;96753.81;10331979;28;20063;-52
2022/12/26 10:35:59;;;;;;;7.38;2.75;;;;;;;19.38;49.47;96753.50;10329145;28;20066;-54
2022/12/26 10:41:31;;;;;;;6.95;2.35;;;;;;;19.39;49.55;96753.19;10341636;28;20078;-54
2022/12/26 10:47:06;;;;;;;9.48;2.80;;;;;;;19.41;49.65;96744.75;10299755;28;20792;-53
2022/12/26 10:52:36;;;;;;;7.95;3.00;;;;;;;19.42;49.79;96741.72;10341670;28;20058;-52
2022/12/26 10:57:59;;;;;;;6.68;2.72;;;;;;;19.43;49.86;96732.50;10316035;28;20062;-53
2022/12/26 11:03:20;;;;;;;6.10;2.60;;;;;;;19.45;49.96;96732.97;10339227;28;20046;-53
2022/12/26 11:08:48;;;;;;;6.68;2.53;;;;;;;19.46;50.01;96736.47;10344807;28;20046;-54
2022/12/26 11:14:36;;;;;;;5.40;2.63;;;;;;;19.46;50.12;96729.13;10328208;28;20063;-53
2022/12/26 11:20:14;;;;;;;6.20;2.42;;;;;;;19.47;50.24;96724.56;10326183;28;20062;-52
2022/12/26 11:25:37;;;;;;;6.63;2.65;;;;;;;19.49;50.21;96719.63;10318901;28;20434;-53
2022/12/26 11:30:59;;;;;;;4.45;2.22;;;;;;;19.48;48.91;96724.22;10296126;28;20120;-53
2022/12/26 11:36:25;;;;;;;7.70;2.53;;;;;;;19.51;49.64;96720.09;10348877;28;20046;-49
2022/12/26 11:41:47;;;;;;;5.03;2.17;;;;;;;19.51;49.47;96714.69;10272922;28;20066;-53
2022/12/26 11:47:09;;;;;;;4.60;2.25;;;;;;;19.50;49.50;96700.38;10336027;28;20058;-53
2022/12/26 11:52:43;;;;;;;4.15;2.20;;;;;;;19.51;49.53;96710.06;10330636;28;20134;-52
2022/12/26 11:58:05;;;;;;;4.72;2.17;;;;;;;19.51;49.47;96709.28;10318088;28;20102;-54
2022/12/26 12:03:33;;;;;;;5.25;1.83;;;;;;;19.51;49.42;96699.25;10313067;28;20415;-52
2022/12/26 12:09:10;;;;;;;5.73;2.30;;;;;;;19.51;49.59;96715.47;10324283;28;20051;-53
2022/12/26 12:14:35;;;;;;;3.90;2.13;;;;;;;19.52;49.17;96700.84;10333173;28;20058;-53
2022/12/26 12:20:19;;;;;;;79.15;24.25;;;;;;;19.51;49.30;96701.94;10337522;28;20050;-53
2022/12/26 12:25:40;;;;;;;17.10;7.05;;;;;;;19.54;51.06;96709.41;10319662;28;20054;-51
2022/12/26 12:31:36;;;;;;;20.25;7.43;;;;;;;19.56;52.93;96714.47;10334219;28;20059;-53
2022/12/26 12:37:19;;;;;;;17.20;6.28;;;;;;;19.58;53.99;96714.16;10330703;28;20499;-52
2022/12/26 12:42:48;;;;;;;13.73;5.47;;;;;;;19.59;53.92;96715.75;10349149;28;20061;-52
2022/12/26 12:48:32;;;;;;;11.75;4.45;;;;;;;19.60;53.75;96730.84;10321904;28;20086;-53
2022/12/26 12:54:04;;;;;;;10.32;4.32;;;;;;;19.60;53.61;96722.72;10349564;28;20054;-51
2022/12/26 12:59:42;;;;;;;7.93;3.97;;;;;;;19.60;53.42;96720.03;10334959;28;20059;-52
2022/12/26 13:05:27;;;;;;;10.25;4.50;;;;;;;19.60;53.21;96703.81;10319687;28;20129;-53
2022/12/26 13:10:52;;;;;;;10.15;3.80;;;;;;;19.59;52.95;96694.91;10335398;28;20070;-54
2022/12/26 13:16:21;;;;;;;7.78;3.97;;;;;;;19.61;52.87;96703.50;10334376;28;20509;-53
2022/12/26 13:21:41;;;;;;;8.20;3.58;;;;;;;19.60;52.74;96691.13;10322511;28;20050;-53
2022/12/26 13:27:24;;;;;;;7.38;3.30;;;;;;;19.61;52.60;96702.72;10328634;28;20494;-54
2022/12/26 13:32:45;;;;;;;9.20;3.53;;;;;;;19.62;52.53;96699.69;10317214;28;20051;-52
2022/12/26 13:38:05;;;;;;;5.68;3.22;;;;;;;19.62;52.41;96718.59;10320025;28;20066;-51
2022/12/26 13:49:03;;;;;;;8.50;3.10;;;;;;;19.63;52.36;96690.44;10333462;28;20058;-52
2022/12/26 13:54:26;;;;;;;6.85;3.15;;;;;;;19.64;52.16;96650.69;10327567;28;20061;-53
2022/12/26 14:00:06;;;;;;;6.07;2.58;;;;;;;19.65;52.11;96630.66;10333845;28;20058;-52
2022/12/26 14:05:44;;;;;;;5.65;2.67;;;;;;;19.65;52.13;96725.25;10306793;28;20069;-54
2022/12/26 14:11:10;;;;;;;6.78;2.80;;;;;;;19.65;51.99;96717.16;10318541;28;20133;-52
2022/12/26 14:16:46;;;;;;;7.05;2.80;;;;;;;19.65;52.10;96685.50;10327447;28;20054;-53
2022/12/26 14:22:13;;;;;;;5.15;2.90;;;;;;;19.65;51.86;96717.94;10329941;28;20058;-53
2022/12/26 14:27:45;;;;;;;6.05;2.80;;;;;;;19.64;51.80;96720.94;10342944;28;20057;-52
2022/12/26 14:33:13;;;;;;;6.72;2.92;;;;;;;19.65;51.72;96742.25;10321564;28;20050;-53
2022/12/26 14:38:51;;;;;;;6.53;2.78;;;;;;;19.64;51.66;96731.75;10329129;28;20494;-52
2022/12/26 14:44:15;;;;;;;5.80;2.67;;;;;;;19.64;51.60;96737.16;10332115;28;20121;-52
2022/12/26 14:49:38;;;;;;;6.40;3.17;;;;;;;19.64;51.54;96737.16;10331692;28;20063;-51
2022/12/26 14:54:58;;;;;;;4.35;2.60;;;;;;;19.62;51.70;96748.31;10329127;28;20113;-51
2022/12/26 15:00:20;;;;;;;5.47;2.78;;;;;;;19.64;51.93;96761.50;10329187;28;20089;-53
2022/12/26 15:05:43;;;;;;;5.43;2.55;;;;;;;19.63;52.01;96751.81;10294345;28;20062;-51
2022/12/26 15:11:30;;;;;;;3.90;2.15;;;;;;;19.63;52.00;96733.69;10320492;28;20054;-53
2022/12/26 15:17:14;;;;;;;4.85;2.30;;;;;;;19.64;52.08;96748.78;10337272;28;20062;-53
2022/12/26 15:22:40;;;;;;;3.22;1.90;;;;;;;19.64;52.03;96759.59;10332486;28;20057;-52
2022/12/26 15:28:19;;;;;;;3.95;2.10;;;;;;;19.64;51.88;96772.31;10340028;28;20069;-53
2022/12/26 15:33:46;;;;;;;4.07;2.22;;;;;;;19.64;52.03;96778.53;10324223;28;20065;-54
2022/12/26 15:39:43;;;;;;;3.90;2.22;;;;;;;19.65;52.20;96790.91;10324101;28;20507;-53
2022/12/26 15:45:14;;;;;;;3.58;2.15;;;;;;;19.65;51.99;96790.13;10335524;28;20062;-53
2022/12/26 15:50:49;;;;;;;4.60;2.30;;;;;;;19.66;52.00;96791.69;10338146;28;20050;-52
2022/12/26 15:56:30;;;;;;;4.72;2.03;;;;;;;19.66;51.91;96791.69;10337990;28;20062;-52
2022/12/26 16:01:52;;;;;;;4.18;2.30;;;;;;;19.66;52.08;96788.97;10337411;28;20407;-52
2022/12/26 16:07:27;;;;;;;3.45;2.00;;;;;;;19.67;51.96;96793.28;10335196;28;20141;-53
2022/12/26 16:13:02;;;;;;;3.75;1.98;;;;;;;19.67;52.29;96785.19;10337454;28;20055;-52
2022/12/26 16:18:26;;;;;;;3.20;1.80;;;;;;;19.68;52.00;96782.16;10336341;28;20125;-53
2022/12/26 16:23:47;;;;;;;2.58;1.75;;;;;;;19.69;51.97;96775.63;10350338;28;20065;-53
2022/12/26 16:29:09;;;;;;;3.30;2.00;;;;;;;19.70;51.95;96781.84;10322646;28;20062;-53
2022/12/26 16:34:32;;;;;;;4.05;1.88;;;;;;;19.69;51.82;96769.44;10337077;28;20058;-52
2022/12/26 16:40:46;;;;;;;4.75;2.10;;;;;;;19.70;51.99;96762.91;10322224;28;20410;-52
2022/12/26 16:46:09;;;;;;;4.20;2.03;;;;;;;19.71;51.49;96778.81;10261075;28;20100;-52
2022/12/26 16:51:45;;;;;;;4.05;2.10;;;;;;;19.73;51.48;96783.91;10335821;28;20050;-53
2022/12/26 16:57:27;;;;;;;4.07;1.77;;;;;;;19.72;51.55;96782.34;10334696;28;20050;-53
2022/12/26 17:02:49;;;;;;;3.05;1.85;;;;;;;19.73;51.39;96783.91;10339661;28;20074;-52
2022/12/26 17:08:11;;;;;;;3.42;1.90;;;;;;;19.72;51.36;96787.75;10320339;28;20063;-52
2022/12/26 17:13:31;;;;;;;3.70;1.80;;;;;;;19.74;51.43;96797.09;10335463;28;20066;-52
2022/12/26 17:18:53;;;;;;;2.40;1.67;;;;;;;19.74;51.32;96805.22;10324255;28;20426;-52
2022/12/26 17:24:20;;;;;;;2.10;1.40;;;;;;;19.75;51.36;96808.69;10297557;28;20058;-53
2022/12/26 17:29:47;;;;;;;3.35;1.70;;;;;;;19.75;51.36;96797.88;10304873;28;20526;-53
2022/12/26 17:35:13;;;;;;;3.20;2.08;;;;;;;19.76;51.42;96796.78;10331254;28;20058;-52
2022/12/26 17:40:35;;;;;;;2.75;1.50;;;;;;;19.77;51.29;96813.78;10334377;28;20055;-52
2022/12/26 17:45:55;;;;;;;2.60;1.45;;;;;;;19.78;51.26;96809.94;10304056;28;20054;-54
2022/12/26 17:51:16;;;;;;;2.22;1.42;;;;;;;19.78;51.22;96799.94;10295113;28;20076;-53
2022/12/26 17:56:35;;;;;;;2.78;1.40;;;;;;;19.78;51.20;96794.53;10313154;28;20055;-53
2022/12/26 18:01:55;;;;;;;3.70;1.60;;;;;;;19.76;49.15;96804.88;10294943;28;20050;-51
2022/12/26 18:07:24;;;;;;;3.05;1.65;;;;;;;-146.19;100.00;65364.44;10319714;28;20492;-53
2022/12/26 18:12:44;;;;;;;3.15;1.45;;;;;;;-146.19;100.00;65364.44;10327025;28;20066;-52
2022/12/26 18:18:04;;;;;;;5.18;1.73;;;;;;;-146.19;100.00;65364.44;10333384;28;20414;-53
2022/12/26 18:23:23;;;;;;;2.53;1.45;;;;;;;19.81;50.97;96766.84;10332986;28;20519;-54
2022/12/26 18:28:44;;;;;;;2.38;1.45;;;;;;;19.83;51.19;96771.94;10332551;28;20113;-52
2022/12/26 18:34:04;;;;;;;2.28;1.65;;;;;;;19.83;51.24;96748.38;10318099;28;20054;-50
2022/12/26 18:39:24;;;;;;;2.00;1.48;;;;;;;19.84;51.31;96768.91;10332745;28;20062;-54
2022/12/26 18:44:43;;;;;;;2.28;1.60;;;;;;;19.84;51.41;96763.50;10331280;28;20525;-55
2022/12/26 18:50:09;;;;;;;3.88;1.38;;;;;;;19.84;51.67;96760.78;10331399;28;20145;-52
2022/12/26 18:55:28;;;;;;;2.15;1.27;;;;;;;19.85;51.71;96773.19;10330455;28;20498;-52
2022/12/26 19:00:48;;;;;;;1.58;1.33;;;;;;;19.86;51.62;96763.19;10332036;28;20112;-51
2022/12/26 19:06:28;;;;;;;2.30;1.55;;;;;;;19.84;51.86;96771.59;10326786;28;20054;-51
2022/12/26 19:11:48;;;;;;;2.30;1.50;;;;;;;19.84;51.76;96768.13;10341131;28;20046;-51
2022/12/26 19:17:07;;;;;;;1.40;1.15;;;;;;;19.84;51.78;96766.19;10344610;28;20061;-52
2022/12/26 19:22:27;;;;;;;2.40;1.27;;;;;;;19.84;51.88;96757.31;10323901;28;20081;-54
2022/12/26 19:27:48;;;;;;;1.50;1.30;;;;;;;19.84;52.09;96743.78;10331052;28;20059;-54
2022/12/26 19:33:08;;;;;;;3.55;1.45;;;;;;;19.84;52.18;96738.38;10331626;28;20063;-54
2022/12/26 19:38:28;;;;;;;2.15;1.30;;;;;;;19.83;52.05;96734.09;10331747;28;20113;-50
2022/12/26 19:43:47;;;;;;;1.75;1.20;;;;;;;19.83;52.00;96731.38;10331361;28;20426;-49
2022/12/26 19:49:07;;;;;;;1.92;1.30;;;;;;;19.83;51.98;96742.19;10331465;28;20108;-47
2022/12/26 19:54:26;;;;;;;3.00;1.10;;;;;;;19.83;52.09;96744.91;10333807;28;20054;-56
2022/12/26 19:59:47;;;;;;;1.50;1.17;;;;;;;19.83;52.23;96732.16;10337780;28;20172;-54
2022/12/26 20:05:08;;;;;;;3.60;1.30;;;;;;;19.84;52.10;96727.56;10332504;28;20072;-53
2022/12/26 20:10:28;;;;;;;1.40;1.20;;;;;;;19.85;52.21;96711.00;10350972;28;20061;-50
2022/12/26 20:15:48;;;;;;;2.83;1.33;;;;;;;19.84;52.23;96722.94;10336486;28;20109;-53
2022/12/26 20:21:09;;;;;;;1.90;1.30;;;;;;;19.85;52.35;96734.53;10336045;28;20054;-49
2022/12/26 20:26:29;;;;;;;1.95;1.15;;;;;;;19.85;52.27;96739.94;10322976;28;20432;-49
2022/12/26 20:31:49;;;;;;;1.60;1.10;;;;;;;19.86;52.38;96733.44;10349923;28;20050;-55
2022/12/26 20:37:09;;;;;;;2.58;1.10;;;;;;;19.86;52.37;96745.03;10349944;28;20050;-53
2022/12/26 20:42:28;;;;;;;2.53;1.20;;;;;;;19.86;52.53;96755.84;10336671;28;20058;-51
2022/12/26 20:47:48;;;;;;;1.25;1.15;;;;;;;19.85;52.54;96740.75;10336279;28;20065;-49
2022/12/26 20:53:07;;;;;;;2.65;1.00;;;;;;;19.85;52.55;96746.16;10336711;28;20042;-54
2022/12/26 20:58:32;;;;;;;2.50;1.20;;;;;;;19.83;51.86;96742.19;10349127;28;20108;-54
2022/12/26 21:03:53;;;;;;;2.40;1.20;;;;;;;19.83;52.15;96756.50;10323268;28;20054;-53
2022/12/26 21:09:12;;;;;;;2.72;1.50;;;;;;;19.82;52.41;96792.78;10334583;28;20059;-54
2022/12/26 21:14:33;;;;;;;1.42;1.10;;;;;;;19.81;52.50;96847.94;10334701;28;20517;-53
2022/12/26 21:19:52;;;;;;;3.40;1.20;;;;;;;19.80;52.73;96853.66;10335250;28;20054;-54
2022/12/26 21:25:12;;;;;;;1.45;1.10;;;;;;;19.79;52.80;96850.19;10335382;28;20120;-53
2022/12/26 21:30:31;;;;;;;4.55;1.10;;;;;;;19.79;52.87;96847.47;10334270;28;20065;-54
2022/12/26 21:35:52;;;;;;;1.90;1.30;;;;;;;19.77;52.89;96830.78;10334426;28;20058;-54
2022/12/26 21:41:13;;;;;;;1.33;1.10;;;;;;;19.77;52.96;96835.41;10315283;28;20061;-53
2022/12/26 21:46:32;;;;;;;1.88;1.20;;;;;;;19.77;53.12;96847.00;10316246;28;20054;-54
2022/12/26 21:51:52;;;;;;;1.90;1.20;;;;;;;19.76;53.26;96834.63;10306231;28;20062;-54
2022/12/26 21:57:12;;;;;;;1.70;1.10;;;;;;;19.75;53.22;96850.03;10305170;28;20085;-54
2022/12/26 22:08:15;;;;;;;3.65;1.13;;;;;;;19.73;53.25;96879.28;10294314;28;20157;-54
2022/12/26 22:13:40;;;;;;;1.27;0.80;;;;;;;19.72;53.22;96877.72;10311402;28;20065;-54
2022/12/26 22:19:00;;;;;;;1.75;1.00;;;;;;;19.71;53.27;96883.41;10344720;28;20050;-53
2022/12/26 22:24:20;;;;;;;2.22;0.90;;;;;;;19.70;53.22;96884.53;10333311;28;20396;-54
2022/12/26 22:29:40;;;;;;;2.63;1.20;;;;;;;19.69;53.16;96882.94;10332971;28;20109;-53
2022/12/26 22:35:05;;;;;;;1.77;1.10;;;;;;;19.67;53.24;96875.16;10333002;28;20058;-53
2022/12/26 22:40:25;;;;;;;2.13;1.13;;;;;;;19.68;53.12;96875.94;10332364;28;20876;-54
2022/12/26 22:45:44;;;;;;;2.35;1.00;;;;;;;19.66;53.27;96857.34;10332697;28;20062;-54
2022/12/26 22:51:04;;;;;;;2.42;1.00;;;;;;;19.66;53.13;96859.25;10317783;28;20446;-54
2022/12/26 22:56:24;;;;;;;1.92;1.02;;;;;;;19.64;53.21;96880.41;10332339;28;20070;-53
2022/12/26 23:01:44;;;;;;;3.97;1.08;;;;;;;19.63;53.21;96895.03;10331732;28;20057;-54
2022/12/26 23:07:12;;;;;;;1.67;0.95;;;;;;;19.62;53.08;96904.25;10335646;28;20050;-54
2022/12/26 23:12:44;;;;;;;2.70;1.00;;;;;;;19.62;53.17;96906.94;10329899;28;20059;-53
2022/12/26 23:23:42;;;;;;;2.35;0.90;;;;;;;19.60;53.22;96906.47;10331939;28;20411;-53
2022/12/26 23:34:40;;;;;;;0.98;0.80;;;;;;;19.57;53.18;96929.53;10339204;28;20054;-53
2022/12/26 23:40:00;;;;;;;1.33;0.90;;;;;;;19.54;53.10;96931.00;10339457;28;20066;-53
2022/12/26 23:45:20;;;;;;;1.67;0.88;;;;;;;19.55;53.06;96927.16;10339060;28;20116;-53
2022/12/26 23:50:39;;;;;;;2.00;0.98;;;;;;;19.52;53.05;96914.31;10351779;28;20050;-53
2022/12/26 23:55:59;;;;;;;1.08;0.85;;;;;;;19.52;53.03;96925.13;10338822;28;20062;-53
